Burns Flat, Oklahoma
Current Conditions -  °F | °C
As of 5:53 AM on Sunday 21 Dec 2014 (Local Time) from KCSM Reporting Station
Haze Haze  
Wind Chill:   Ceiling: 500
Heat Index:   Visibility: 6mi
Dew Point:   Wind: 22mph
Humidity: 89%   Direction: 170°S
Pressure: 29.97"   Gusts: NA
Location:  35.35°N, 99.17°W
Report Text: KCSM 211153Z AUTO 17019KT 6SM BR OVC005 06/04 A2997 RMK AO2 SLP151 T00560039 10056 20044 56022
Loading
Personal Weather Stations






























Interactive Weather Map New forecast layout! Learn more

10-Day Weather Forecast

Advertisements
Track Severe Weather on mobile